Time;durP1;ratioP1;P1;durP2;ratioP2;P2;SDS_P1;SDS_P2;PMS_P1;PMS_P2;Temp;Humidity;BMP_temperature;BMP_pressure;BME280_temperature;BME280_humidity;BME280_pressure;Samples;Min_cycle;Max_cycle;Signal;HPM_P1;HPM_P2
2021/01/19 00:01:17;;;;;;;23.60;12.27;;;4.50;99.90;;;;;;5060882;28;21247;-77
2021/01/19 00:03:43;;;;;;;25.95;12.93;;;4.50;99.90;;;;;;5066492;28;20043;-77
2021/01/19 00:06:09;;;;;;;24.70;12.30;;;4.50;99.90;;;;;;5063246;28;20056;-76
2021/01/19 00:08:34;;;;;;;21.63;12.02;;;4.50;99.90;;;;;;5065350;28;20066;-76
2021/01/19 00:11:00;;;;;;;25.30;12.27;;;4.50;99.90;;;;;;5064034;28;20032;-76
2021/01/19 00:13:26;;;;;;;30.02;12.95;;;4.50;99.90;;;;;;5066059;28;20412;-76
2021/01/19 00:15:51;;;;;;;27.20;13.52;;;4.50;99.90;;;;;;5070505;28;20024;-77
2021/01/19 00:18:17;;;;;;;26.48;12.25;;;4.50;99.90;;;;;;5066114;28;21268;-76
2021/01/19 00:20:43;;;;;;;21.70;12.48;;;4.50;99.90;;;;;;5068377;28;20116;-77
2021/01/19 00:23:12;;;;;;;27.50;12.05;;;4.50;99.90;;;;;;5067469;28;20032;-77
2021/01/19 00:25:40;;;;;;;26.73;12.45;;;4.50;99.90;;;;;;5068070;28;20160;-76
2021/01/19 00:28:06;;;;;;;26.15;12.65;;;4.50;99.90;;;;;;5067236;28;20033;-76
2021/01/19 00:30:32;;;;;;;26.85;12.50;;;4.40;99.90;;;;;;5067208;28;20379;-76
2021/01/19 00:32:58;;;;;;;26.33;12.77;;;4.40;99.90;;;;;;5068380;28;20028;-76
2021/01/19 00:35:24;;;;;;;22.88;12.80;;;4.40;99.90;;;;;;5066985;28;20607;-76
2021/01/19 00:37:49;;;;;;;28.35;12.52;;;4.50;99.90;;;;;;5068776;28;20020;-76
2021/01/19 00:40:15;;;;;;;25.33;12.75;;;4.50;99.90;;;;;;5067435;28;20038;-76
2021/01/19 00:42:41;;;;;;;21.55;11.98;;;4.50;99.90;;;;;;5066693;28;20028;-76
2021/01/19 00:45:07;;;;;;;24.98;12.98;;;4.40;99.90;;;;;;5070227;28;20072;-76
2021/01/19 00:47:32;;;;;;;32.15;11.90;;;4.50;99.90;;;;;;5066798;28;20054;-77
2021/01/19 00:49:58;;;;;;;31.33;11.95;;;4.50;99.90;;;;;;5068878;28;20041;-76
2021/01/19 00:52:23;;;;;;;26.90;13.85;;;4.40;99.90;;;;;;5066015;28;20025;-76
2021/01/19 00:54:48;;;;;;;27.75;13.70;;;4.50;99.90;;;;;;5068753;28;20017;-77
2021/01/19 00:57:14;;;;;;;29.92;13.57;;;4.50;99.90;;;;;;5068012;28;20035;-76
2021/01/19 00:59:39;;;;;;;24.85;12.35;;;4.50;99.90;;;;;;5066523;28;20020;-77
2021/01/19 01:02:05;;;;;;;27.05;12.68;;;4.40;99.90;;;;;;5066611;28;20036;-76
2021/01/19 01:04:30;;;;;;;23.17;12.70;;;4.40;99.90;;;;;;5066112;28;20032;-76
2021/01/19 01:06:56;;;;;;;22.98;12.13;;;4.50;99.90;;;;;;5069131;28;20114;-76
2021/01/19 01:09:22;;;;;;;26.40;12.98;;;4.40;99.90;;;;;;5067468;28;20031;-77
2021/01/19 01:11:47;;;;;;;27.10;12.68;;;4.40;99.90;;;;;;5067950;28;20070;-77
2021/01/19 01:14:13;;;;;;;23.80;12.15;;;4.40;99.90;;;;;;5066599;28;20567;-76
2021/01/19 01:16:40;;;;;;;28.88;13.40;;;4.40;99.90;;;;;;5066319;28;20044;-77
2021/01/19 01:19:06;;;;;;;25.70;12.38;;;4.40;99.90;;;;;;5068266;28;20107;-77
2021/01/19 01:21:39;;;;;;;29.25;12.50;;;4.40;99.90;;;;;;5065858;28;20029;-76
2021/01/19 01:24:06;;;;;;;26.85;13.07;;;4.40;99.90;;;;;;5066658;28;20020;-76
2021/01/19 01:26:31;;;;;;;25.08;12.80;;;4.40;99.90;;;;;;5066534;28;20390;-77
2021/01/19 01:28:57;;;;;;;26.70;12.07;;;4.40;99.90;;;;;;5062825;28;20112;-77
2021/01/19 01:31:22;;;;;;;27.35;12.60;;;4.40;99.90;;;;;;5061825;28;20107;-76
2021/01/19 01:33:48;;;;;;;24.77;12.70;;;4.40;99.90;;;;;;5065058;28;20115;-76
2021/01/19 01:36:14;;;;;;;26.10;13.00;;;4.40;99.90;;;;;;5067262;28;20147;-76
2021/01/19 01:38:39;;;;;;;29.23;12.93;;;4.30;99.90;;;;;;5064708;28;20029;-76
2021/01/19 01:41:19;;;;;;;27.58;12.68;;;4.40;99.90;;;;;;5068401;28;20040;-76
2021/01/19 01:43:46;;;;;;;39.72;13.23;;;4.40;99.90;;;;;;5068239;28;20028;-76
2021/01/19 01:46:13;;;;;;;26.23;12.73;;;4.40;99.90;;;;;;5065205;28;20056;-76
2021/01/19 01:48:41;;;;;;;25.27;12.77;;;4.40;99.90;;;;;;5067334;28;20036;-77
2021/01/19 01:51:08;;;;;;;28.17;12.85;;;4.40;99.90;;;;;;5066009;28;20067;-76
2021/01/19 01:53:34;;;;;;;28.00;12.30;;;4.40;99.90;;;;;;5065325;28;20033;-76
2021/01/19 01:56:00;;;;;;;23.23;12.77;;;4.40;99.90;;;;;;5066723;28;20115;-76
2021/01/19 01:58:25;;;;;;;25.00;13.32;;;4.40;99.90;;;;;;5063756;28;20147;-77
2021/01/19 02:00:52;;;;;;;25.70;12.30;;;4.40;99.90;;;;;;5063996;28;20025;-76
2021/01/19 02:03:18;;;;;;;27.98;13.05;;;4.50;99.90;;;;;;5067507;28;20453;-76
2021/01/19 02:05:43;;;;;;;23.80;11.68;;;4.50;99.90;;;;;;5065979;28;20111;-76
2021/01/19 02:08:41;;;;;;;24.40;12.20;;;4.50;99.90;;;;;;5065686;28;20024;-77
2021/01/19 02:11:13;;;;;;;22.38;11.98;;;4.50;99.90;;;;;;5066582;28;20056;-77
2021/01/19 02:13:59;;;;;;;21.25;11.38;;;4.40;99.90;;;;;;5067459;28;20030;-76
2021/01/19 02:16:34;;;;;;;23.17;12.30;;;4.40;99.90;;;;;;5065712;28;20053;-76
2021/01/19 02:19:17;;;;;;;25.02;12.48;;;4.40;99.90;;;;;;5064734;28;20059;-76
2021/01/19 02:22:12;;;;;;;21.45;11.80;;;4.50;99.90;;;;;;5066437;28;20064;-76
2021/01/19 02:24:46;;;;;;;25.80;12.82;;;4.50;99.90;;;;;;5065385;28;20995;-76
2021/01/19 02:27:29;;;;;;;25.40;12.02;;;4.50;99.90;;;;;;5064802;28;20043;-76
2021/01/19 02:30:18;;;;;;;28.63;12.30;;;4.50;99.90;;;;;;5064227;28;20077;-77
2021/01/19 02:33:03;;;;;;;25.25;12.50;;;4.50;99.90;;;;;;5065947;28;20482;-76
2021/01/19 02:35:45;;;;;;;21.98;11.48;;;4.50;99.90;;;;;;5064901;28;20032;-76
2021/01/19 02:38:40;;;;;;;24.52;10.82;;;4.40;99.90;;;;;;5066143;28;20527;-77
2021/01/19 02:41:07;;;;;;;25.58;12.23;;;4.50;99.90;;;;;;5064075;28;20032;-77
2021/01/19 02:43:35;;;;;;;21.67;11.60;;;4.50;99.90;;;;;;5066210;28;20028;-77
2021/01/19 02:46:01;;;;;;;23.02;11.73;;;4.50;99.90;;;;;;5065808;28;20071;-76
2021/01/19 02:48:26;;;;;;;23.45;11.50;;;4.50;99.90;;;;;;5065899;28;20482;-76
2021/01/19 02:50:53;;;;;;;23.00;10.73;;;4.40;99.90;;;;;;5062924;28;20034;-76
2021/01/19 02:53:20;;;;;;;24.25;11.48;;;4.50;99.90;;;;;;5066981;28;20116;-77
2021/01/19 02:55:46;;;;;;;23.80;11.05;;;4.50;99.90;;;;;;5065706;28;20024;-76
2021/01/19 02:58:22;;;;;;;18.73;11.77;;;4.50;99.90;;;;;;5066597;28;20474;-76
2021/01/19 03:01:02;;;;;;;24.17;10.75;;;4.40;99.90;;;;;;5062856;28;20032;-77
2021/01/19 03:03:31;;;;;;;23.87;10.73;;;4.40;99.90;;;;;;5064334;28;20033;-77
2021/01/19 03:05:59;;;;;;;24.80;11.07;;;4.50;99.90;;;;;;5064369;28;20490;-76
2021/01/19 03:08:26;;;;;;;21.92;11.27;;;4.50;99.90;;;;;;5065056;28;20043;-76
2021/01/19 03:10:54;;;;;;;22.58;11.13;;;4.40;99.90;;;;;;5063970;28;20032;-76
2021/01/19 03:13:20;;;;;;;19.35;10.32;;;4.50;99.90;;;;;;5065745;28;20024;-76
2021/01/19 03:15:45;;;;;;;21.65;10.93;;;4.50;99.90;;;;;;5064301;28;20105;-76
2021/01/19 03:18:11;;;;;;;18.65;10.63;;;4.50;99.90;;;;;;5065277;28;20133;-76
2021/01/19 03:20:36;;;;;;;20.83;11.60;;;4.50;99.90;;;;;;5064702;28;20532;-76
2021/01/19 03:23:02;;;;;;;19.67;10.27;;;4.60;99.90;;;;;;5064573;28;20054;-76
2021/01/19 03:25:28;;;;;;;19.55;10.48;;;4.50;99.90;;;;;;5066137;28;21195;-77
2021/01/19 03:27:53;;;;;;;21.50;10.38;;;4.60;99.90;;;;;;5064165;28;20036;-76
2021/01/19 03:30:19;;;;;;;16.42;9.77;;;4.60;99.90;;;;;;5064096;28;20028;-76
2021/01/19 03:32:44;;;;;;;19.25;9.60;;;4.50;99.90;;;;;;5064984;28;20094;-76
2021/01/19 03:35:11;;;;;;;20.88;10.88;;;4.50;99.90;;;;;;5065301;28;20107;-76
2021/01/19 03:37:37;;;;;;;19.23;10.35;;;4.50;99.90;;;;;;5062945;28;20043;-77
2021/01/19 03:40:04;;;;;;;18.05;10.05;;;4.60;99.90;;;;;;5064233;28;20029;-76
2021/01/19 03:42:29;;;;;;;20.58;10.35;;;4.60;99.90;;;;;;5064287;28;20093;-77
2021/01/19 03:44:55;;;;;;;22.10;10.95;;;4.60;99.90;;;;;;5064222;28;20045;-77
2021/01/19 03:47:20;;;;;;;20.92;10.77;;;4.60;99.90;;;;;;5064180;28;20044;-76
2021/01/19 03:49:46;;;;;;;21.48;10.02;;;4.70;99.90;;;;;;5064140;28;21650;-76
2021/01/19 03:52:11;;;;;;;23.88;10.02;;;4.70;99.90;;;;;;5064885;28;20105;-77
2021/01/19 03:54:37;;;;;;;17.52;9.77;;;4.60;99.90;;;;;;5060623;28;20029;-76
2021/01/19 03:57:02;;;;;;;17.67;10.00;;;4.60;99.90;;;;;;5062957;28;20436;-76
2021/01/19 03:59:28;;;;;;;22.13;10.13;;;4.70;99.90;;;;;;5064109;28;20078;-76
2021/01/19 04:01:53;;;;;;;17.60;9.52;;;4.70;99.90;;;;;;5063157;28;20387;-76
2021/01/19 04:04:19;;;;;;;17.95;9.05;;;4.70;99.90;;;;;;5066071;28;20027;-76
2021/01/19 04:06:44;;;;;;;16.63;9.48;;;4.60;99.90;;;;;;5064652;28;20038;-76
2021/01/19 04:09:09;;;;;;;14.88;9.10;;;4.70;99.90;;;;;;5064553;28;20068;-76
2021/01/19 04:11:35;;;;;;;18.92;9.50;;;4.60;99.90;;;;;;5062809;28;20020;-77
2021/01/19 04:14:01;;;;;;;18.63;8.73;;;4.60;99.90;;;;;;5064859;28;20033;-76
2021/01/19 04:16:26;;;;;;;15.85;8.63;;;4.60;99.90;;;;;;5063717;28;20096;-76
2021/01/19 04:18:54;;;;;;;19.52;8.73;;;4.70;99.90;;;;;;5063500;28;20029;-77
2021/01/19 04:21:20;;;;;;;15.73;9.07;;;4.70;99.90;;;;;;5062484;28;20055;-76
2021/01/19 04:23:45;;;;;;;18.60;9.32;;;4.70;99.90;;;;;;5067078;28;20033;-76
2021/01/19 04:26:11;;;;;;;17.17;8.85;;;4.70;99.90;;;;;;5062385;28;20017;-76
2021/01/19 04:28:36;;;;;;;14.75;8.35;;;4.70;99.90;;;;;;5062318;28;20139;-76
2021/01/19 04:31:02;;;;;;;12.43;8.38;;;4.70;99.90;;;;;;5065511;28;20032;-76
2021/01/19 04:33:28;;;;;;;17.23;9.05;;;4.70;99.90;;;;;;5062875;28;20028;-77
2021/01/19 04:35:53;;;;;;;15.65;9.27;;;4.70;99.90;;;;;;5064138;28;20356;-76
2021/01/19 04:38:19;;;;;;;16.30;9.57;;;4.70;99.90;;;;;;5063982;28;20103;-77
2021/01/19 04:40:44;;;;;;;15.23;8.27;;;4.70;99.90;;;;;;5063128;28;20029;-76
2021/01/19 04:43:12;;;;;;;16.52;9.27;;;4.70;99.90;;;;;;5065413;28;20078;-76
2021/01/19 04:45:40;;;;;;;18.75;8.73;;;4.70;99.90;;;;;;5062427;28;20055;-76
2021/01/19 04:48:10;;;;;;;16.80;8.15;;;4.70;99.90;;;;;;5066073;28;20079;-77
2021/01/19 04:50:36;;;;;;;16.88;8.73;;;4.70;99.90;;;;;;5061379;28;20078;-76
2021/01/19 04:53:03;;;;;;;16.77;8.60;;;4.70;99.90;;;;;;5064126;28;20103;-76
2021/01/19 04:55:34;;;;;;;17.58;8.77;;;4.70;99.90;;;;;;5065304;28;20028;-77
2021/01/19 04:58:02;;;;;;;13.18;8.13;;;4.70;99.90;;;;;;5063245;28;20024;-76
2021/01/19 05:00:30;;;;;;;15.27;8.48;;;4.70;99.90;;;;;;5064731;28;20029;-77
2021/01/19 05:03:01;;;;;;;17.08;8.52;;;4.70;99.90;;;;;;5067168;28;20107;-77
2021/01/19 05:05:36;;;;;;;12.63;8.10;;;4.70;99.90;;;;;;5066651;28;20020;-76
2021/01/19 05:08:17;;;;;;;19.40;8.52;;;4.70;99.90;;;;;;5067025;28;20128;-77
2021/01/19 05:11:03;;;;;;;15.63;8.18;;;4.70;99.90;;;;;;5067835;28;20104;-77
2021/01/19 05:13:55;;;;;;;17.40;8.25;;;4.70;99.90;;;;;;5064873;28;20028;-76
2021/01/19 05:16:29;;;;;;;18.55;8.60;;;4.70;99.90;;;;;;5066795;28;20028;-77
2021/01/19 05:18:55;;;;;;;13.35;7.75;;;4.70;99.90;;;;;;5066435;28;20031;-77
2021/01/19 05:21:21;;;;;;;15.20;8.23;;;4.70;99.90;;;;;;5068602;28;20020;-76
2021/01/19 05:23:47;;;;;;;13.43;8.10;;;4.70;99.90;;;;;;5066709;28;20387;-76
2021/01/19 05:26:14;;;;;;;13.95;7.60;;;4.70;99.90;;;;;;5067709;28;20088;-76
2021/01/19 05:28:44;;;;;;;11.05;7.00;;;4.60;99.90;;;;;;5064306;28;20115;-76
2021/01/19 05:31:16;;;;;;;12.50;7.18;;;4.60;99.90;;;;;;5066134;28;20048;-76
2021/01/19 05:33:42;;;;;;;;;;;4.70;99.90;;;;;;5067529;28;20032;-76
2021/01/19 05:36:09;;;;;;;13.90;7.45;;;4.60;99.90;;;;;;5065345;28;19916;-76
2021/01/19 05:38:54;;;;;;;12.68;7.53;;;4.60;99.90;;;;;;5066330;28;20052;-76
2021/01/19 05:41:38;;;;;;;13.88;7.13;;;4.60;99.90;;;;;;5067299;28;20024;-76
2021/01/19 05:44:29;;;;;;;12.55;7.63;;;4.60;99.90;;;;;;5067032;28;20039;-76
2021/01/19 05:47:02;;;;;;;10.82;6.32;;;4.60;99.90;;;;;;5065438;28;20028;-77
2021/01/19 05:49:30;;;;;;;13.25;6.38;;;4.60;99.90;;;;;;5065657;28;20782;-77
2021/01/19 05:52:03;;;;;;;16.50;6.97;;;4.60;99.90;;;;;;5066291;28;20082;-77
2021/01/19 05:54:31;;;;;;;13.60;6.65;;;4.70;99.90;;;;;;5066303;28;20364;-76
2021/01/19 05:57:02;;;;;;;12.60;6.57;;;4.60;99.90;;;;;;5064903;28;20356;-77
2021/01/19 05:59:30;;;;;;;9.32;5.82;;;4.60;99.90;;;;;;5065558;28;20050;-76
2021/01/19 06:02:00;;;;;;;13.88;6.82;;;4.60;99.90;;;;;;5067396;28;20055;-76
2021/01/19 06:04:47;;;;;;;13.52;6.55;;;4.60;99.90;;;;;;5066882;28;20043;-76
2021/01/19 06:07:15;;;;;;;11.85;6.75;;;4.60;99.90;;;;;;5064222;28;20017;-77
2021/01/19 06:09:42;;;;;;;13.00;6.32;;;4.60;99.90;;;;;;5061980;28;20523;-76
2021/01/19 06:12:08;;;;;;;10.20;6.82;;;4.60;99.90;;;;;;5066883;28;20032;-76
2021/01/19 06:14:34;;;;;;;11.55;6.47;;;4.60;99.90;;;;;;5067013;28;20467;-76
2021/01/19 06:17:11;;;;;;;10.07;6.30;;;4.50;99.90;;;;;;5065893;28;20020;-76
2021/01/19 06:19:37;;;;;;;11.30;6.20;;;4.50;99.90;;;;;;5064271;28;20044;-76
2021/01/19 06:22:08;;;;;;;13.68;6.32;;;4.50;99.90;;;;;;5065183;28;20071;-76
2021/01/19 06:24:39;;;;;;;12.90;6.38;;;4.50;99.90;;;;;;5061918;28;20033;-76
2021/01/19 06:27:06;;;;;;;11.85;6.57;;;4.50;99.90;;;;;;5065942;28;20079;-76
2021/01/19 06:29:32;;;;;;;8.20;5.20;;;4.50;99.90;;;;;;5064708;28;20119;-76
2021/01/19 06:32:03;;;;;;;11.98;5.65;;;4.50;99.90;;;;;;5063919;28;20151;-76
2021/01/19 06:34:32;;;;;;;11.18;5.95;;;4.60;99.90;;;;;;5065825;28;20020;-76
2021/01/19 06:36:58;;;;;;;11.30;5.47;;;4.50;99.90;;;;;;5066408;28;20044;-76
2021/01/19 06:39:31;;;;;;;12.90;6.03;;;4.50;99.90;;;;;;5064667;28;20159;-76
2021/01/19 06:42:12;;;;;;;11.73;5.90;;;4.50;99.90;;;;;;5066134;28;20077;-76
2021/01/19 06:44:43;;;;;;;10.60;5.97;;;4.50;99.90;;;;;;5063569;28;20048;-76
2021/01/19 06:47:09;;;;;;;10.50;6.00;;;4.60;99.90;;;;;;5066175;28;20335;-76
2021/01/19 06:49:39;;;;;;;12.10;6.10;;;4.60;99.90;;;;;;5065390;28;20044;-76
2021/01/19 06:52:10;;;;;;;9.63;5.07;;;4.60;99.90;;;;;;5066013;28;20089;-80
2021/01/19 06:55:04;;;;;;;11.70;5.68;;;4.60;99.90;;;;;;5064786;28;20025;-73
2021/01/19 06:57:48;;;;;;;13.38;6.50;;;4.60;99.90;;;;;;5065843;28;20070;-75
2021/01/19 07:00:20;;;;;;;10.75;5.95;;;4.50;99.90;;;;;;5063619;28;20033;-75
2021/01/19 07:02:48;;;;;;;13.98;6.25;;;4.50;99.90;;;;;;5066983;28;20202;-75
2021/01/19 07:05:21;;;;;;;11.55;6.32;;;4.50;99.90;;;;;;5061151;28;20941;-78
2021/01/19 07:08:21;;;;;;;17.30;6.88;;;4.40;99.90;;;;;;5061339;28;20029;-81
2021/01/19 07:10:56;;;;;;;9.93;5.53;;;4.50;99.90;;;;;;5060157;28;20120;-80
2021/01/19 07:13:23;;;;;;;12.75;5.85;;;4.50;99.90;;;;;;5064010;28;20116;-80
2021/01/19 07:15:55;;;;;;;11.40;6.47;;;4.50;99.90;;;;;;5062576;28;20779;-80
2021/01/19 07:18:43;;;;;;;9.32;5.63;;;4.50;99.90;;;;;;5064139;28;21189;-80
2021/01/19 07:21:10;;;;;;;14.50;6.10;;;4.50;99.90;;;;;;5063577;28;20031;-80
2021/01/19 07:24:14;;;;;;;9.32;6.22;;;4.40;99.90;;;;;;5065532;28;20032;-81
2021/01/19 07:26:42;;;;;;;13.05;6.22;;;4.40;99.90;;;;;;5064078;28;20383;-80
2021/01/19 07:29:08;;;;;;;10.80;6.03;;;4.40;99.90;;;;;;5065421;28;20479;-80
2021/01/19 07:31:33;;;;;;;12.20;6.18;;;4.40;99.90;;;;;;5063543;28;20032;-81
2021/01/19 07:34:03;;;;;;;12.07;6.22;;;4.40;99.90;;;;;;5064135;28;20387;-80
2021/01/19 07:36:28;;;;;;;13.05;6.32;;;4.50;99.90;;;;;;5062681;28;20202;-80
2021/01/19 07:38:54;;;;;;;9.23;5.82;;;4.50;99.90;;;;;;5065940;28;20021;-80
2021/01/19 07:41:28;;;;;;;12.95;6.53;;;4.50;99.90;;;;;;5059582;28;20115;-80
2021/01/19 07:43:54;;;;;;;10.30;6.28;;;4.50;99.90;;;;;;5065081;28;20374;-79
2021/01/19 07:46:24;;;;;;;11.02;6.13;;;4.50;99.90;;;;;;5064623;28;20119;-73
2021/01/19 07:49:00;;;;;;;11.32;6.18;;;4.40;99.90;;;;;;5064712;28;20055;-73
2021/01/19 07:51:44;;;;;;;13.50;7.18;;;4.50;99.90;;;;;;5061139;28;20120;-74
2021/01/19 07:54:21;;;;;;;10.75;6.55;;;4.50;99.90;;;;;;5064318;28;20453;-74
2021/01/19 07:56:47;;;;;;;14.75;7.20;;;4.60;99.90;;;;;;5064507;28;20060;-73
2021/01/19 07:59:18;;;;;;;14.70;7.47;;;4.50;99.90;;;;;;5061709;28;20055;-74
2021/01/19 08:01:57;;;;;;;13.10;7.23;;;4.50;99.90;;;;;;5058870;28;20110;-74
2021/01/19 08:04:30;;;;;;;14.82;8.02;;;4.60;99.90;;;;;;5066347;28;20523;-74
2021/01/19 08:06:56;;;;;;;14.15;7.82;;;4.60;99.90;;;;;;5065327;28;20028;-74
2021/01/19 08:09:22;;;;;;;19.02;8.02;;;4.60;99.90;;;;;;5063391;28;20035;-74
2021/01/19 08:12:03;;;;;;;15.88;7.63;;;4.60;99.90;;;;;;5065405;28;20107;-75
2021/01/19 08:14:40;;;;;;;12.93;7.57;;;4.70;99.90;;;;;;5060105;28;20113;-74
2021/01/19 08:17:07;;;;;;;16.40;8.57;;;4.60;99.90;;;;;;5062119;28;20033;-76
2021/01/19 08:19:38;;;;;;;13.90;7.30;;;4.70;99.90;;;;;;5061358;28;20034;-77
2021/01/19 08:22:04;;;;;;;17.67;7.70;;;4.70;99.90;;;;;;5061597;28;20024;-80
2021/01/19 08:24:29;;;;;;;15.10;8.02;;;4.70;99.90;;;;;;5062739;28;20390;-76
2021/01/19 08:26:56;;;;;;;17.42;8.50;;;4.70;99.90;;;;;;5060192;28;20021;-76
2021/01/19 08:29:22;;;;;;;15.98;8.48;;;4.70;99.90;;;;;;5063308;28;20056;-75
2021/01/19 08:31:57;;;;;;;16.60;7.65;;;4.80;99.90;;;;;;5063254;28;20024;-77
2021/01/19 08:34:25;;;;;;;19.67;8.07;;;4.80;99.90;;;;;;5063209;28;20475;-76
2021/01/19 08:36:51;;;;;;;15.18;7.50;;;4.80;99.90;;;;;;5067546;28;20025;-77
2021/01/19 08:39:17;;;;;;;11.60;7.57;;;4.70;99.90;;;;;;5066431;28;20025;-77
2021/01/19 08:41:51;;;;;;;13.82;7.57;;;4.80;99.90;;;;;;5067590;28;20032;-77
2021/01/19 08:44:17;;;;;;;11.35;7.63;;;4.80;99.90;;;;;;5065328;28;20425;-76
2021/01/19 08:46:44;;;;;;;14.27;7.38;;;4.90;99.90;;;;;;5063931;28;20033;-77
2021/01/19 08:49:17;;;;;;;13.43;7.35;;;4.90;99.90;;;;;;5064224;28;20037;-77
2021/01/19 08:51:47;;;;;;;14.95;6.95;;;4.90;99.90;;;;;;5061261;28;20025;-76
2021/01/19 08:54:13;;;;;;;11.38;6.40;;;4.90;99.90;;;;;;5065840;28;20021;-77
2021/01/19 08:56:47;;;;;;;11.88;7.50;;;5.00;99.90;;;;;;5065077;28;20024;-77
2021/01/19 08:59:17;;;;;;;11.38;6.80;;;5.00;99.90;;;;;;5065888;28;20293;-77
2021/01/19 09:01:53;;;;;;;11.43;6.47;;;5.00;99.90;;;;;;5064421;28;20028;-77
2021/01/19 09:04:27;;;;;;;13.93;7.00;;;5.10;99.90;;;;;;5063952;28;20044;-77
2021/01/19 09:07:04;;;;;;;14.55;7.22;;;5.10;99.90;;;;;;5064922;28;20028;-77
2021/01/19 09:09:29;;;;;;;13.43;6.30;;;5.10;99.90;;;;;;5067267;28;20028;-77
2021/01/19 09:11:55;;;;;;;13.82;6.88;;;5.10;99.90;;;;;;5067223;28;20110;-77
2021/01/19 09:14:24;;;;;;;11.10;6.38;;;5.10;99.90;;;;;;5065097;28;20059;-77
2021/01/19 09:16:51;;;;;;;14.88;7.18;;;5.10;99.90;;;;;;5066092;28;20017;-77
2021/01/19 09:19:17;;;;;;;13.63;7.80;;;5.10;99.90;;;;;;5065271;28;20119;-80
2021/01/19 09:21:42;;;;;;;13.85;7.63;;;5.10;99.90;;;;;;5064842;28;20112;-79
2021/01/19 09:24:21;;;;;;;16.42;8.05;;;5.00;99.90;;;;;;5068229;28;20399;-76
2021/01/19 09:26:58;;;;;;;15.75;6.97;;;5.10;99.90;;;;;;5063800;28;20436;-79
2021/01/19 09:29:28;;;;;;;10.82;6.75;;;5.10;99.90;;;;;;5067505;28;20024;-76
2021/01/19 09:31:56;;;;;;;15.43;7.60;;;5.00;99.90;;;;;;5065918;28;20036;-77
2021/01/19 09:34:22;;;;;;;19.13;7.75;;;5.00;99.90;;;;;;5067401;28;20044;-77
2021/01/19 09:36:51;;;;;;;12.00;7.70;;;5.10;99.90;;;;;;5063751;28;20242;-77
2021/01/19 09:39:30;;;;;;;12.90;7.15;;;5.10;99.90;;;;;;5065472;28;20027;-77
2021/01/19 09:42:00;;;;;;;14.00;7.57;;;5.10;99.90;;;;;;5066534;28;20432;-77
2021/01/19 09:44:29;;;;;;;12.67;7.20;;;5.10;99.90;;;;;;5064945;28;20046;-80
2021/01/19 09:47:00;;;;;;;17.20;7.50;;;5.10;99.90;;;;;;5065583;28;20043;-79
2021/01/19 09:49:27;;;;;;;11.60;6.07;;;5.10;99.90;;;;;;5065244;28;20034;-77
2021/01/19 09:51:52;;;;;;;16.05;6.93;;;5.10;99.90;;;;;;5066570;28;20123;-77
2021/01/19 09:54:22;;;;;;;10.30;5.28;;;5.10;99.90;;;;;;5067096;28;20692;-77
2021/01/19 09:56:58;;;;;;;9.25;5.45;;;5.10;99.90;;;;;;5061859;28;20123;-76
2021/01/19 09:59:25;;;;;;;11.57;5.40;;;5.10;99.90;;;;;;5065783;28;20024;-77
2021/01/19 10:01:51;;;;;;;9.30;5.03;;;5.10;99.90;;;;;;5064979;28;20482;-77
2021/01/19 10:04:18;;;;;;;9.30;5.63;;;5.00;99.90;;;;;;5064548;28;20055;-78
2021/01/19 10:06:45;;;;;;;12.18;5.90;;;5.00;99.90;;;;;;5063785;28;20024;-78
2021/01/19 10:09:20;;;;;;;9.48;5.07;;;5.00;99.90;;;;;;5064223;28;20025;-75
2021/01/19 10:11:54;;;;;;;13.65;5.25;;;4.90;99.90;;;;;;5064575;28;20044;-76
2021/01/19 10:14:19;;;;;;;11.40;5.13;;;5.00;99.90;;;;;;5066241;28;20024;-76
2021/01/19 10:16:49;;;;;;;11.40;4.43;;;5.00;99.90;;;;;;5065184;28;20027;-78
2021/01/19 10:19:26;;;;;;;10.55;5.07;;;4.90;99.90;;;;;;5063792;28;20025;-78
2021/01/19 10:21:54;;;;;;;9.05;5.22;;;5.00;99.90;;;;;;5065516;28;20036;-77
2021/01/19 10:24:21;;;;;;;12.43;5.20;;;4.90;99.90;;;;;;5060740;28;20124;-76
2021/01/19 10:27:08;;;;;;;9.65;4.90;;;5.00;99.90;;;;;;5064599;28;20478;-76
2021/01/19 10:29:36;;;;;;;13.40;5.13;;;4.90;99.90;;;;;;5058507;28;20032;-80
2021/01/19 10:32:04;;;;;;;14.85;5.38;;;5.00;99.90;;;;;;5062704;28;20025;-86
2021/01/19 10:34:33;;;;;;;11.43;5.40;;;5.00;99.90;;;;;;5063445;28;20570;-75
2021/01/19 10:36:58;;;;;;;7.82;4.90;;;5.00;99.90;;;;;;5063812;28;20040;-76
2021/01/19 10:39:25;;;;;;;11.52;4.90;;;5.00;99.90;;;;;;5063373;28;20013;-78
2021/01/19 10:41:51;;;;;;;8.27;4.53;;;5.10;99.90;;;;;;5064563;28;20037;-75
2021/01/19 10:44:17;;;;;;;8.32;4.10;;;5.10;99.90;;;;;;5053701;28;20040;-76
2021/01/19 10:46:44;;;;;;;11.48;4.13;;;5.10;99.90;;;;;;5059536;28;20033;-78
2021/01/19 10:49:12;;;;;;;9.95;4.45;;;5.10;99.90;;;;;;5064008;28;20024;-75
2021/01/19 10:51:40;;;;;;;12.75;4.13;;;5.10;99.90;;;;;;5056296;28;20661;-74
2021/01/19 10:54:19;;;;;;;7.45;4.15;;;5.10;99.90;;;;;;5060140;28;20031;-74
2021/01/19 10:56:47;;;;;;;8.70;3.88;;;5.00;99.90;;;;;;5060563;28;20035;-74
2021/01/19 10:59:13;;;;;;;10.32;3.83;;;5.00;99.90;;;;;;5065751;28;20028;-73
2021/01/19 11:01:39;;;;;;;9.65;3.90;;;5.00;99.90;;;;;;5060798;28;20028;-76
2021/01/19 11:04:06;;;;;;;7.68;3.80;;;5.00;99.90;;;;;;5059359;28;20471;-74
2021/01/19 11:06:36;;;;;;;10.00;4.07;;;5.00;99.90;;;;;;5059447;28;20035;-76
2021/01/19 11:09:04;;;;;;;10.27;3.85;;;4.90;99.90;;;;;;5063149;28;20033;-74
2021/01/19 11:11:29;;;;;;;7.05;3.97;;;4.80;99.90;;;;;;5061600;28;20036;-75
2021/01/19 11:14:02;;;;;;;9.32;3.88;;;4.80;99.90;;;;;;5060028;28;20441;-74
2021/01/19 11:16:29;;;;;;;8.20;3.83;;;4.70;99.90;;;;;;5064872;28;20036;-75
2021/01/19 11:18:57;;;;;;;8.73;4.00;;;4.70;99.90;;;;;;5062027;28;20027;-74
2021/01/19 11:21:23;;;;;;;10.43;3.97;;;4.70;99.90;;;;;;5061001;28;20032;-75
2021/01/19 11:23:48;;;;;;;7.50;4.28;;;4.60;99.90;;;;;;5058568;28;20043;-76
2021/01/19 11:26:15;;;;;;;8.15;4.15;;;4.60;99.90;;;;;;5065802;28;20056;-75
2021/01/19 11:28:41;;;;;;;9.93;4.18;;;4.40;99.90;;;;;;5056107;28;20553;-76
2021/01/19 11:31:06;;;;;;;8.85;3.50;;;4.50;99.90;;;;;;5060416;28;20040;-76
2021/01/19 11:33:32;;;;;;;6.90;3.33;;;4.40;99.90;;;;;;5064119;28;20425;-75
2021/01/19 11:35:57;;;;;;;7.35;3.88;;;4.30;99.90;;;;;;5064752;28;20040;-72
2021/01/19 11:38:23;;;;;;;7.45;3.70;;;4.20;99.90;;;;;;5065636;28;20081;-71
2021/01/19 11:40:48;;;;;;;8.32;4.13;;;4.20;99.90;;;;;;5061688;28;21243;-74
2021/01/19 11:43:14;;;;;;;7.15;4.03;;;4.10;99.90;;;;;;5059698;28;20040;-74
2021/01/19 11:45:39;;;;;;;10.48;3.90;;;4.00;99.90;;;;;;5065436;28;20079;-74
2021/01/19 11:48:05;;;;;;;9.82;4.45;;;4.00;99.90;;;;;;5063355;28;20048;-74
2021/01/19 11:50:30;;;;;;;5.65;3.65;;;4.00;99.90;;;;;;5060243;28;20115;-75
2021/01/19 11:52:56;;;;;;;6.43;3.22;;;4.00;99.90;;;;;;5063999;28;20561;-74
2021/01/19 11:55:21;;;;;;;8.85;4.07;;;4.00;99.90;;;;;;5067704;28;20055;-72
2021/01/19 11:57:48;;;;;;;8.45;3.75;;;4.00;99.90;;;;;;5064061;28;20111;-74
2021/01/19 12:00:14;;;;;;;5.68;3.30;;;4.00;99.90;;;;;;5063060;28;20040;-74
2021/01/19 12:02:39;;;;;;;5.85;3.63;;;3.90;99.90;;;;;;5060770;28;20037;-74
2021/01/19 12:05:05;;;;;;;5.53;3.03;;;3.80;99.90;;;;;;5065230;28;20086;-74
2021/01/19 12:07:31;;;;;;;7.57;3.63;;;3.80;99.90;;;;;;5061454;28;20036;-75
2021/01/19 12:09:56;;;;;;;5.40;3.17;;;3.70;99.90;;;;;;5065556;28;20050;-74
2021/01/19 12:12:22;;;;;;;6.82;3.53;;;3.60;99.90;;;;;;5067372;28;20080;-74
2021/01/19 12:14:47;;;;;;;8.75;3.03;;;3.50;99.90;;;;;;5061716;28;20025;-77
2021/01/19 12:17:13;;;;;;;4.65;2.80;;;3.50;99.90;;;;;;5070350;28;20478;-73
2021/01/19 12:19:39;;;;;;;4.88;3.17;;;3.40;99.90;;;;;;5067139;28;20071;-72
2021/01/19 12:22:05;;;;;;;7.03;3.40;;;3.40;99.90;;;;;;5069283;28;20107;-72
2021/01/19 12:24:30;;;;;;;4.35;3.00;;;3.40;99.90;;;;;;5067784;28;20056;-73
2021/01/19 12:26:57;;;;;;;8.27;3.90;;;3.30;99.90;;;;;;5067823;28;20510;-74
2021/01/19 12:29:25;;;;;;;8.35;4.05;;;3.40;99.90;;;;;;5064286;28;20021;-75
2021/01/19 12:31:50;;;;;;;5.85;3.30;;;3.40;99.90;;;;;;5064066;28;20056;-74
2021/01/19 12:34:18;;;;;;;6.07;3.58;;;3.40;99.90;;;;;;5062664;28;20128;-75
2021/01/19 12:36:44;;;;;;;6.03;3.10;;;3.40;99.90;;;;;;5059963;28;20035;-73
2021/01/19 12:39:10;;;;;;;5.10;2.95;;;3.50;99.90;;;;;;5060692;28;20031;-73
2021/01/19 12:41:36;;;;;;;4.05;3.00;;;3.50;99.90;;;;;;5060737;28;20039;-74
2021/01/19 12:44:05;;;;;;;6.00;3.17;;;3.40;99.90;;;;;;5068372;28;20410;-73
2021/01/19 12:46:31;;;;;;;4.40;2.78;;;3.40;99.90;;;;;;5067832;28;20169;-73
2021/01/19 12:48:57;;;;;;;3.72;2.65;;;3.40;99.90;;;;;;5069535;28;20954;-74
2021/01/19 12:51:22;;;;;;;4.55;2.58;;;3.20;99.90;;;;;;5072387;28;20032;-73
2021/01/19 12:53:49;;;;;;;5.50;2.95;;;3.30;99.90;;;;;;5073969;28;20039;-74
2021/01/19 12:56:16;;;;;;;4.00;2.45;;;3.30;99.90;;;;;;5072395;28;20025;-74